createdAt,value
2017-06-08T00:00:02.948Z,99.99
2017-06-08T00:05:03.288Z,99.99
2017-06-08T00:10:02.714Z,99.99
2017-06-08T00:15:03.209Z,99.99
2017-06-08T00:20:02.607Z,99.99
2017-06-08T00:25:02.949Z,99.99
2017-06-08T00:30:03.312Z,99.99
2017-06-08T00:35:02.642Z,99.99
2017-06-08T00:40:03.106Z,99.99
2017-06-08T00:45:03.502Z,99.99
2017-06-08T00:50:02.829Z,99.99
2017-06-08T00:55:03.459Z,99.99
2017-06-08T01:00:02.822Z,99.99
2017-06-08T01:05:03.165Z,99.99
2017-06-08T01:10:02.808Z,99.99
2017-06-08T01:15:03.289Z,99.99
2017-06-08T01:20:02.643Z,99.99
2017-06-08T01:25:03.083Z,99.99
2017-06-08T01:30:03.426Z,99.99
2017-06-08T01:35:02.687Z,99.99
2017-06-08T01:40:03.204Z,99.99
2017-06-08T01:45:02.684Z,99.99
2017-06-08T01:50:03.080Z,99.99
2017-06-08T01:55:03.466Z,99.99
2017-06-08T02:00:02.842Z,99.99
2017-06-08T02:05:03.234Z,99.99
2017-06-08T02:10:02.849Z,99.99
2017-06-08T02:15:03.291Z,99.99
2017-06-08T02:20:02.840Z,99.99
2017-06-08T02:25:03.053Z,99.99
2017-06-08T02:30:03.440Z,99.99
2017-06-08T02:35:02.766Z,99.99
2017-06-08T02:40:03.235Z,99.99
2017-06-08T02:45:03.663Z,99.99
2017-06-08T02:50:02.941Z,99.99
2017-06-08T02:55:03.499Z,99.99
2017-06-08T03:00:02.786Z,99.99
2017-06-08T03:05:03.187Z,99.37
2017-06-08T03:10:02.544Z,97.85
2017-06-08T03:15:03.039Z,96.42
2017-06-08T03:20:03.306Z,95.46
2017-06-08T03:25:02.861Z,93.02
2017-06-08T03:30:03.232Z,90.55
2017-06-08T03:35:02.599Z,88.73
2017-06-08T03:40:02.998Z,86.63
2017-06-08T03:45:03.384Z,84.34
2017-06-08T03:50:02.692Z,82.53
2017-06-08T03:55:03.226Z,80.11
2017-06-08T04:00:03.515Z,80.2
2017-06-08T04:05:03.087Z,80.2
2017-06-08T04:10:03.525Z,79.63
2017-06-08T04:15:02.835Z,78.62
2017-06-08T04:20:03.276Z,79.86
2017-06-08T04:25:02.640Z,79.57
2017-06-08T04:30:02.996Z,79.57
2017-06-08T04:35:03.339Z,79.38
2017-06-08T04:40:02.679Z,79.19
2017-06-08T04:45:02.972Z,78.91
2017-06-08T04:50:03.378Z,78.62
2017-06-08T04:55:02.651Z,77.67
2017-06-08T05:00:03.068Z,76.9
2017-06-08T05:05:03.487Z,77.47
2017-06-08T05:10:03.137Z,77.57
2017-06-08T05:15:03.427Z,77.09
2017-06-08T05:20:02.941Z,77.38
2017-06-08T05:25:03.361Z,77.38
2017-06-08T05:30:02.782Z,77.51
2017-06-08T05:35:03.233Z,77.89
2017-06-08T05:40:03.697Z,79.14
2017-06-08T05:45:02.983Z,79.04
2017-06-08T05:50:03.509Z,78.85
2017-06-08T05:55:02.820Z,79.52
2017-06-08T06:00:03.180Z,79.33
2017-06-08T06:05:03.604Z,79.71
2017-06-08T06:10:03.045Z,80.41
2017-06-08T06:15:03.387Z,80.8
2017-06-08T06:20:02.681Z,81.18
2017-06-08T06:25:03.136Z,83.23
2017-06-08T06:30:03.512Z,83.9
2017-06-08T06:35:02.800Z,85.14
2017-06-08T06:40:03.273Z,85.05
2017-06-08T06:45:03.706Z,85.05
2017-06-08T06:50:03.175Z,86.19
2017-06-08T06:55:03.541Z,86.86
2017-06-08T07:00:02.914Z,86.71
2017-06-08T07:05:03.519Z,87.09
2017-06-08T07:10:02.969Z,87.76
2017-06-08T07:15:03.319Z,88.67
2017-06-08T07:20:02.815Z,90.3
2017-06-08T07:25:03.179Z,89.62
2017-06-08T07:30:03.703Z,91.2
2017-06-08T07:35:03.284Z,92.44
2017-06-08T07:40:02.754Z,92.35
2017-06-08T07:45:03.351Z,93.74
2017-06-08T07:50:02.788Z,95.07
2017-06-08T07:55:03.165Z,97.14
2017-06-08T08:00:03.508Z,99.05
2017-06-08T08:05:02.834Z,97.8
2017-06-08T08:10:03.292Z,98.28
2017-06-08T08:15:02.660Z,98.24
2017-06-08T08:20:02.930Z,98.62
2017-06-08T08:25:03.350Z,99.01
2017-06-08T08:30:02.941Z,98.72
2017-06-08T08:35:03.325Z,99.29
2017-06-08T08:40:02.723Z,99.1
2017-06-08T08:45:03.201Z,99.68
2017-06-08T08:50:03.505Z,99.39
2017-06-08T08:55:02.746Z,99.73
2017-06-08T09:00:03.200Z,99.53
2017-06-08T09:05:03.448Z,99.96
2017-06-08T09:10:03.324Z,99.99
2017-06-08T09:15:02.738Z,99.99
2017-06-08T09:20:03.317Z,99.99
2017-06-08T09:25:02.886Z,99.99
2017-06-08T09:30:03.315Z,99.99
2017-06-08T09:35:02.637Z,99.99
2017-06-08T09:40:03.161Z,99.99
2017-06-08T09:45:02.791Z,99.99
2017-06-08T09:50:03.274Z,99.99
2017-06-08T09:55:03.556Z,99.99
2017-06-08T10:00:02.902Z,99.99
2017-06-08T10:05:03.311Z,99.99
2017-06-08T10:10:02.725Z,99.99
2017-06-08T10:15:03.265Z,99.99
2017-06-08T10:20:02.625Z,99.99
2017-06-08T10:25:03.119Z,99.99
2017-06-08T10:30:02.943Z,99.99
2017-06-08T10:35:03.501Z,99.99
2017-06-08T10:40:03.217Z,99.99
2017-06-08T10:45:02.857Z,99.99
2017-06-08T10:50:03.191Z,99.99
2017-06-08T10:55:02.925Z,99.99
2017-06-08T11:00:02.707Z,99.99
2017-06-08T11:05:03.168Z,99.99
2017-06-08T11:10:02.820Z,97.81
2017-06-08T11:15:02.881Z,95.26
2017-06-08T11:20:03.364Z,95.01
2017-06-08T11:25:03.008Z,88.69
2017-06-08T11:30:03.299Z,88.36
2017-06-08T11:35:03.062Z,89.9
2017-06-08T11:40:03.079Z,85.99
2017-06-08T11:45:02.916Z,81.68
2017-06-08T11:50:02.912Z,83.58
2017-06-08T11:55:02.686Z,86.43
2017-06-08T12:00:03.595Z,86.52
2017-06-08T12:05:02.976Z,85.27
2017-06-08T12:10:03.314Z,84.89
2017-06-08T12:15:03.217Z,85.94
2017-06-08T12:20:03.222Z,84.21
2017-06-08T12:25:03.465Z,83.05
2017-06-08T12:30:03.263Z,82.09
2017-06-08T12:35:03.069Z,81.35
2017-06-08T12:40:03.702Z,79.24
2017-06-08T12:45:03.247Z,80.54
2017-06-08T12:50:03.142Z,81.65
2017-06-08T12:55:03.022Z,80.18
2017-06-08T13:00:03.038Z,78.83
2017-06-08T13:05:03.158Z,79.6
2017-06-08T13:10:03.554Z,80.47
2017-06-08T13:15:03.568Z,76.55
2017-06-08T13:20:03.427Z,76.97
2017-06-08T13:25:03.511Z,75.17
2017-06-08T13:30:02.592Z,74.3
2017-06-08T13:35:03.372Z,74.01
2017-06-08T13:40:02.636Z,74.98
2017-06-08T13:45:03.271Z,72.66
2017-06-08T13:50:02.763Z,73.68
2017-06-08T13:55:02.782Z,73.55
2017-06-08T14:00:03.574Z,74.65
2017-06-08T14:05:03.540Z,74.75
2017-06-08T14:10:03.096Z,73.82
2017-06-08T14:15:02.735Z,73.53
2017-06-08T14:20:03.080Z,73.08
2017-06-08T14:25:03.143Z,72.11
2017-06-08T14:30:03.211Z,71.37
2017-06-08T14:35:02.827Z,71.08
2017-06-08T14:40:02.647Z,71.47
2017-06-08T14:45:03.620Z,71.47
2017-06-08T14:50:03.435Z,70.7
2017-06-08T14:55:03.040Z,70.76
2017-06-08T15:00:03.230Z,70.76
2017-06-08T15:05:02.643Z,71.59
2017-06-08T15:10:02.726Z,71.5
2017-06-08T15:15:03.188Z,71.2
2017-06-08T15:20:02.917Z,71.98
2017-06-08T15:25:03.482Z,72.17
2017-06-08T15:30:03.295Z,72.6
2017-06-08T15:35:02.611Z,72.4
2017-06-08T15:40:02.611Z,73.75
2017-06-08T15:45:02.831Z,72.46
2017-06-08T15:50:03.024Z,73.24
2017-06-08T15:55:02.733Z,72.11
2017-06-08T16:00:02.842Z,72.11
2017-06-08T16:05:02.955Z,72.79
2017-06-08T16:10:03.094Z,73.27
2017-06-08T16:15:02.693Z,74.15
2017-06-08T16:20:02.616Z,74.15
2017-06-08T16:25:03.023Z,75.56
2017-06-08T16:30:02.842Z,76.62
2017-06-08T16:35:03.424Z,74.65
2017-06-08T16:40:03.312Z,74.27
2017-06-08T16:45:03.142Z,74.21
2017-06-08T16:50:03.525Z,74.85
2017-06-08T16:55:03.173Z,74.94
2017-06-08T17:00:02.722Z,76.59
2017-06-08T17:05:03.021Z,77.22
2017-06-08T17:10:02.617Z,78
2017-06-08T17:15:03.148Z,78.38
2017-06-08T17:20:03.552Z,79.06
2017-06-08T17:25:02.904Z,79.54
2017-06-08T17:30:03.440Z,79.68
2017-06-08T17:35:02.901Z,79.39
2017-06-08T17:40:03.344Z,79.97
2017-06-08T17:45:02.795Z,78.87
2017-06-08T17:50:03.146Z,79.45
2017-06-08T17:55:03.448Z,79.83
2017-06-08T18:00:02.804Z,80.57
2017-06-08T18:05:03.148Z,81.44
2017-06-08T18:10:02.898Z,81.53
2017-06-08T18:15:02.687Z,81.82
2017-06-08T18:20:03.040Z,81.73
2017-06-08T18:25:02.773Z,82.79
2017-06-08T18:30:03.470Z,83.42
2017-06-08T18:35:03.384Z,84.1
2017-06-08T18:40:03.427Z,84.68
2017-06-08T18:45:02.930Z,85.74
2017-06-08T18:50:02.744Z,86.47
2017-06-08T18:55:02.721Z,87.44
2017-06-08T19:00:02.671Z,88.59
2017-06-08T19:05:02.636Z,89.47
2017-06-08T19:10:03.417Z,91.06
2017-06-08T19:15:03.305Z,92.41
2017-06-08T19:20:03.291Z,93.47
2017-06-08T19:25:02.875Z,94.53
2017-06-08T19:30:02.617Z,95.64
2017-06-08T19:35:03.344Z,97.09
2017-06-08T19:40:03.437Z,98.15
2017-06-08T19:45:02.960Z,99.16
2017-06-08T19:50:03.476Z,99.93
2017-06-08T19:55:02.929Z,99.99
2017-06-08T20:00:03.371Z,99.99
2017-06-08T20:05:02.823Z,99.99
2017-06-08T20:10:03.308Z,99.99
2017-06-08T20:15:02.758Z,99.99
2017-06-08T20:20:03.176Z,99.99
2017-06-08T20:25:03.062Z,99.99
2017-06-08T20:30:02.793Z,99.99
2017-06-08T20:35:02.742Z,99.99
2017-06-08T20:40:03.562Z,99.99
2017-06-08T20:45:02.843Z,99.99
2017-06-08T20:50:02.955Z,99.99
2017-06-08T20:55:03.438Z,99.99
2017-06-08T21:00:03.375Z,99.99
2017-06-08T21:05:02.802Z,99.99
2017-06-08T21:10:03.222Z,99.99
2017-06-08T21:15:03.710Z,99.99
2017-06-08T21:20:03.041Z,99.99
2017-06-08T21:25:03.530Z,99.99
2017-06-08T21:30:03.088Z,99.99
2017-06-08T21:35:03.463Z,99.99
2017-06-08T21:40:02.738Z,99.99
2017-06-08T21:45:03.249Z,99.99
2017-06-08T21:50:02.630Z,99.99
2017-06-08T21:55:02.791Z,99.99
2017-06-08T22:00:02.803Z,99.99
2017-06-08T22:05:03.230Z,99.99
2017-06-08T22:10:02.672Z,99.92
2017-06-08T22:15:02.968Z,99.92
2017-06-08T22:20:03.391Z,99.92
2017-06-08T22:25:02.816Z,99.83
2017-06-08T22:30:03.190Z,99.83
2017-06-08T22:35:02.568Z,99.68
2017-06-08T22:40:03.038Z,99.68
2017-06-08T22:45:03.358Z,99.58
2017-06-08T22:50:02.685Z,99.3
2017-06-08T22:55:03.119Z,99.3
2017-06-08T23:00:03.478Z,99.3
2017-06-08T23:05:02.946Z,99.3
2017-06-08T23:10:03.462Z,98.96
2017-06-08T23:15:02.820Z,99.05
2017-06-08T23:20:03.120Z,98.96
2017-06-08T23:25:02.568Z,98.86
2017-06-08T23:30:02.840Z,98.96
2017-06-08T23:35:03.155Z,98.86
2017-06-08T23:40:02.627Z,98.86
2017-06-08T23:45:02.976Z,98.77
2017-06-08T23:50:03.389Z,98.77
2017-06-08T23:55:02.694Z,98.58
